sensor_id;sensor_type;location;lat;lon;timestamp;temperature;humidity
13446;DHT22;6795;51.232;3.764;2023-03-21T00:01:06;10.40;99.90
13446;DHT22;6795;51.232;3.764;2023-03-21T00:03:36;10.30;99.90
13446;DHT22;6795;51.232;3.764;2023-03-21T00:06:05;10.40;99.90
13446;DHT22;6795;51.232;3.764;2023-03-21T00:08:34;10.30;99.90
13446;DHT22;6795;51.232;3.764;2023-03-21T00:11:05;10.40;99.90
13446;DHT22;6795;51.232;3.764;2023-03-21T00:13:33;10.40;99.90
13446;DHT22;6795;51.232;3.764;2023-03-21T00:16:06;10.40;99.90
13446;DHT22;6795;51.232;3.764;2023-03-21T00:18:45;10.40;99.90
13446;DHT22;6795;51.232;3.764;2023-03-21T00:21:16;10.40;99.90
13446;DHT22;6795;51.232;3.764;2023-03-21T00:24:06;10.40;99.90
13446;DHT22;6795;51.232;3.764;2023-03-21T00:26:34;10.40;99.90
13446;DHT22;6795;51.232;3.764;2023-03-21T00:29:04;10.40;99.90
13446;DHT22;6795;51.232;3.764;2023-03-21T00:31:33;10.40;99.90
13446;DHT22;6795;51.232;3.764;2023-03-21T00:34:04;10.40;99.90
13446;DHT22;6795;51.232;3.764;2023-03-21T00:36:32;10.40;99.90
13446;DHT22;6795;51.232;3.764;2023-03-21T00:39:01;10.40;99.90
13446;DHT22;6795;51.232;3.764;2023-03-21T00:41:31;10.40;99.90
13446;DHT22;6795;51.232;3.764;2023-03-21T00:44:14;10.50;99.90
13446;DHT22;6795;51.232;3.764;2023-03-21T00:46:43;10.50;99.90
13446;DHT22;6795;51.232;3.764;2023-03-21T00:49:33;10.50;99.90
13446;DHT22;6795;51.232;3.764;2023-03-21T00:52:05;10.50;99.90
13446;DHT22;6795;51.232;3.764;2023-03-21T00:54:46;10.50;99.90
13446;DHT22;6795;51.232;3.764;2023-03-21T00:57:14;10.50;99.90
13446;DHT22;6795;51.232;3.764;2023-03-21T00:59:44;10.50;99.90
13446;DHT22;6795;51.232;3.764;2023-03-21T01:02:13;10.50;99.90
13446;DHT22;6795;51.232;3.764;2023-03-21T01:04:50;10.50;99.90
13446;DHT22;6795;51.232;3.764;2023-03-21T01:07:18;10.50;99.90
13446;DHT22;6795;51.232;3.764;2023-03-21T01:09:47;10.50;99.90
13446;DHT22;6795;51.232;3.764;2023-03-21T01:12:16;10.40;99.90
13446;DHT22;6795;51.232;3.764;2023-03-21T01:14:45;10.50;99.90
13446;DHT22;6795;51.232;3.764;2023-03-21T01:17:13;10.50;99.90
13446;DHT22;6795;51.232;3.764;2023-03-21T01:19:42;10.50;99.90
13446;DHT22;6795;51.232;3.764;2023-03-21T01:22:19;10.40;99.90
13446;DHT22;6795;51.232;3.764;2023-03-21T01:24:48;10.40;99.90
13446;DHT22;6795;51.232;3.764;2023-03-21T01:27:26;10.40;99.90
13446;DHT22;6795;51.232;3.764;2023-03-21T01:29:54;10.40;99.90
13446;DHT22;6795;51.232;3.764;2023-03-21T01:32:24;10.40;99.90
13446;DHT22;6795;51.232;3.764;2023-03-21T01:34:53;10.50;99.90
13446;DHT22;6795;51.232;3.764;2023-03-21T01:37:22;10.40;99.90
13446;DHT22;6795;51.232;3.764;2023-03-21T01:39:52;10.40;99.90
13446;DHT22;6795;51.232;3.764;2023-03-21T01:42:21;10.40;99.90
13446;DHT22;6795;51.232;3.764;2023-03-21T01:44:55;10.40;99.90
13446;DHT22;6795;51.232;3.764;2023-03-21T01:47:24;10.50;99.90
13446;DHT22;6795;51.232;3.764;2023-03-21T01:49:55;10.50;99.90
13446;DHT22;6795;51.232;3.764;2023-03-21T01:52:28;10.50;99.90
13446;DHT22;6795;51.232;3.764;2023-03-21T01:55:08;10.50;99.90
13446;DHT22;6795;51.232;3.764;2023-03-21T01:57:42;10.50;99.90
13446;DHT22;6795;51.232;3.764;2023-03-21T02:00:31;10.50;99.90
13446;DHT22;6795;51.232;3.764;2023-03-21T02:03:02;10.50;99.90
13446;DHT22;6795;51.232;3.764;2023-03-21T02:05:51;10.50;99.90
13446;DHT22;6795;51.232;3.764;2023-03-21T02:08:23;10.40;99.90
13446;DHT22;6795;51.232;3.764;2023-03-21T02:11:06;10.30;99.90
13446;DHT22;6795;51.232;3.764;2023-03-21T02:13:36;10.30;99.90
13446;DHT22;6795;51.232;3.764;2023-03-21T02:16:11;10.20;99.90
13446;DHT22;6795;51.232;3.764;2023-03-21T02:24:48;10.30;99.90
13446;DHT22;6795;51.232;3.764;2023-03-21T02:27:33;10.30;99.90
13446;DHT22;6795;51.232;3.764;2023-03-21T02:36:21;10.30;99.90
13446;DHT22;6795;51.232;3.764;2023-03-21T02:39:01;10.30;99.90
13446;DHT22;6795;51.232;3.764;2023-03-21T02:41:43;10.40;99.90
13446;DHT22;6795;51.232;3.764;2023-03-21T02:44:20;10.30;99.90
13446;DHT22;6795;51.232;3.764;2023-03-21T02:46:52;10.40;99.90
13446;DHT22;6795;51.232;3.764;2023-03-21T02:49:36;10.30;99.90
13446;DHT22;6795;51.232;3.764;2023-03-21T02:52:13;10.40;99.90
13446;DHT22;6795;51.232;3.764;2023-03-21T02:55:00;10.30;99.90
13446;DHT22;6795;51.232;3.764;2023-03-21T02:57:32;10.50;99.90
13446;DHT22;6795;51.232;3.764;2023-03-21T03:00:14;10.50;99.90
13446;DHT22;6795;51.232;3.764;2023-03-21T03:02:44;10.50;99.90
13446;DHT22;6795;51.232;3.764;2023-03-21T03:05:16;10.50;99.90
13446;DHT22;6795;51.232;3.764;2023-03-21T03:08:03;10.50;99.90
13446;DHT22;6795;51.232;3.764;2023-03-21T03:10:47;10.50;99.90
13446;DHT22;6795;51.232;3.764;2023-03-21T03:13:26;10.50;99.90
13446;DHT22;6795;51.232;3.764;2023-03-21T03:16:06;10.50;99.90
13446;DHT22;6795;51.232;3.764;2023-03-21T03:18:43;10.50;99.90
13446;DHT22;6795;51.232;3.764;2023-03-21T03:21:19;10.60;99.90
13446;DHT22;6795;51.232;3.764;2023-03-21T03:23:50;10.60;99.90
13446;DHT22;6795;51.232;3.764;2023-03-21T03:26:25;10.60;99.90
13446;DHT22;6795;51.232;3.764;2023-03-21T03:28:59;10.60;99.90
13446;DHT22;6795;51.232;3.764;2023-03-21T03:31:32;10.60;99.90
13446;DHT22;6795;51.232;3.764;2023-03-21T03:34:04;10.60;99.90
13446;DHT22;6795;51.232;3.764;2023-03-21T03:36:38;10.60;99.90
13446;DHT22;6795;51.232;3.764;2023-03-21T03:39:08;10.60;99.90
13446;DHT22;6795;51.232;3.764;2023-03-21T03:41:44;10.50;99.90
13446;DHT22;6795;51.232;3.764;2023-03-21T03:44:34;10.50;99.90
13446;DHT22;6795;51.232;3.764;2023-03-21T03:47:06;10.50;99.90
13446;DHT22;6795;51.232;3.764;2023-03-21T03:49:42;10.50;99.90
13446;DHT22;6795;51.232;3.764;2023-03-21T03:52:17;10.50;99.90
13446;DHT22;6795;51.232;3.764;2023-03-21T03:54:48;10.60;99.90
13446;DHT22;6795;51.232;3.764;2023-03-21T03:57:19;10.50;99.90
13446;DHT22;6795;51.232;3.764;2023-03-21T03:59:48;10.50;99.90
13446;DHT22;6795;51.232;3.764;2023-03-21T04:02:17;10.60;99.90
13446;DHT22;6795;51.232;3.764;2023-03-21T04:04:46;10.70;99.90
13446;DHT22;6795;51.232;3.764;2023-03-21T04:07:20;10.70;99.90
13446;DHT22;6795;51.232;3.764;2023-03-21T04:09:49;10.70;99.90
13446;DHT22;6795;51.232;3.764;2023-03-21T04:12:19;10.60;99.90
13446;DHT22;6795;51.232;3.764;2023-03-21T04:14:47;10.60;99.90
13446;DHT22;6795;51.232;3.764;2023-03-21T04:17:16;10.60;99.90
13446;DHT22;6795;51.232;3.764;2023-03-21T04:19:45;10.50;99.90
13446;DHT22;6795;51.232;3.764;2023-03-21T04:22:13;10.40;99.90
13446;DHT22;6795;51.232;3.764;2023-03-21T04:24:43;10.40;99.90
13446;DHT22;6795;51.232;3.764;2023-03-21T04:27:11;10.50;99.90
13446;DHT22;6795;51.232;3.764;2023-03-21T04:29:42;10.50;99.90
13446;DHT22;6795;51.232;3.764;2023-03-21T04:32:10;10.50;99.90
13446;DHT22;6795;51.232;3.764;2023-03-21T04:34:44;10.60;99.90
13446;DHT22;6795;51.232;3.764;2023-03-21T04:37:16;10.60;99.90
13446;DHT22;6795;51.232;3.764;2023-03-21T04:39:45;10.60;99.90
13446;DHT22;6795;51.232;3.764;2023-03-21T04:42:14;10.60;99.90
13446;DHT22;6795;51.232;3.764;2023-03-21T04:44:46;10.60;99.90
13446;DHT22;6795;51.232;3.764;2023-03-21T04:47:14;10.70;99.90
13446;DHT22;6795;51.232;3.764;2023-03-21T04:49:43;10.60;99.90
13446;DHT22;6795;51.232;3.764;2023-03-21T04:52:11;10.70;99.90
13446;DHT22;6795;51.232;3.764;2023-03-21T04:54:40;10.70;99.90
13446;DHT22;6795;51.232;3.764;2023-03-21T04:57:08;10.70;99.90
13446;DHT22;6795;51.232;3.764;2023-03-21T04:59:37;10.60;99.90
13446;DHT22;6795;51.232;3.764;2023-03-21T05:02:06;10.50;99.90
13446;DHT22;6795;51.232;3.764;2023-03-21T05:04:35;10.40;99.90
13446;DHT22;6795;51.232;3.764;2023-03-21T05:07:03;10.40;99.90
13446;DHT22;6795;51.232;3.764;2023-03-21T05:09:32;10.30;99.90
13446;DHT22;6795;51.232;3.764;2023-03-21T05:12:00;10.20;99.90
13446;DHT22;6795;51.232;3.764;2023-03-21T05:14:29;10.10;99.90
13446;DHT22;6795;51.232;3.764;2023-03-21T05:16:58;10.00;99.90
13446;DHT22;6795;51.232;3.764;2023-03-21T05:22:03;10.00;99.90
13446;DHT22;6795;51.232;3.764;2023-03-21T05:24:33;9.80;99.90
13446;DHT22;6795;51.232;3.764;2023-03-21T05:27:03;9.80;99.90
13446;DHT22;6795;51.232;3.764;2023-03-21T05:29:32;9.80;99.90
13446;DHT22;6795;51.232;3.764;2023-03-21T05:32:01;9.60;99.90
13446;DHT22;6795;51.232;3.764;2023-03-21T05:34:30;9.60;99.90
13446;DHT22;6795;51.232;3.764;2023-03-21T05:37:00;9.60;99.90
13446;DHT22;6795;51.232;3.764;2023-03-21T05:39:28;9.50;99.90
13446;DHT22;6795;51.232;3.764;2023-03-21T05:41:57;9.50;99.90
13446;DHT22;6795;51.232;3.764;2023-03-21T05:44:25;9.60;99.90
13446;DHT22;6795;51.232;3.764;2023-03-21T05:46:54;9.60;99.90
13446;DHT22;6795;51.232;3.764;2023-03-21T05:49:22;9.60;99.90
13446;DHT22;6795;51.232;3.764;2023-03-21T05:51:51;9.60;99.90
13446;DHT22;6795;51.232;3.764;2023-03-21T05:54:20;9.60;99.90
13446;DHT22;6795;51.232;3.764;2023-03-21T05:56:49;9.60;99.90
13446;DHT22;6795;51.232;3.764;2023-03-21T05:59:17;9.60;99.90
13446;DHT22;6795;51.232;3.764;2023-03-21T06:01:46;9.60;99.90
13446;DHT22;6795;51.232;3.764;2023-03-21T06:04:14;9.60;99.90
13446;DHT22;6795;51.232;3.764;2023-03-21T06:06:43;9.60;99.90
13446;DHT22;6795;51.232;3.764;2023-03-21T06:09:12;9.60;99.90
13446;DHT22;6795;51.232;3.764;2023-03-21T06:11:48;9.60;99.90
13446;DHT22;6795;51.232;3.764;2023-03-21T06:14:18;9.60;99.90
13446;DHT22;6795;51.232;3.764;2023-03-21T06:16:47;9.60;99.90
13446;DHT22;6795;51.232;3.764;2023-03-21T06:19:16;9.60;99.90
13446;DHT22;6795;51.232;3.764;2023-03-21T06:21:44;9.60;99.90
13446;DHT22;6795;51.232;3.764;2023-03-21T06:24:13;9.60;99.90
13446;DHT22;6795;51.232;3.764;2023-03-21T06:26:43;9.60;99.90
13446;DHT22;6795;51.232;3.764;2023-03-21T06:29:12;9.70;99.90
13446;DHT22;6795;51.232;3.764;2023-03-21T06:31:40;9.70;99.90
13446;DHT22;6795;51.232;3.764;2023-03-21T06:34:09;9.80;99.90
13446;DHT22;6795;51.232;3.764;2023-03-21T06:36:37;9.80;99.90
13446;DHT22;6795;51.232;3.764;2023-03-21T06:39:06;9.90;99.90
13446;DHT22;6795;51.232;3.764;2023-03-21T06:41:34;9.90;99.90
13446;DHT22;6795;51.232;3.764;2023-03-21T06:44:04;10.00;99.90
13446;DHT22;6795;51.232;3.764;2023-03-21T06:46:32;10.00;99.90
13446;DHT22;6795;51.232;3.764;2023-03-21T06:49:01;10.10;99.90
13446;DHT22;6795;51.232;3.764;2023-03-21T06:51:29;10.20;99.90
13446;DHT22;6795;51.232;3.764;2023-03-21T06:53:58;10.20;99.90
13446;DHT22;6795;51.232;3.764;2023-03-21T06:56:27;10.20;99.90
13446;DHT22;6795;51.232;3.764;2023-03-21T06:58:55;10.30;99.90
13446;DHT22;6795;51.232;3.764;2023-03-21T07:01:25;10.40;99.90
13446;DHT22;6795;51.232;3.764;2023-03-21T07:03:53;10.30;99.90
13446;DHT22;6795;51.232;3.764;2023-03-21T07:06:24;10.40;99.90
13446;DHT22;6795;51.232;3.764;2023-03-21T07:08:53;10.40;99.90
13446;DHT22;6795;51.232;3.764;2023-03-21T07:11:23;10.40;99.90
13446;DHT22;6795;51.232;3.764;2023-03-21T07:13:51;10.50;99.90
13446;DHT22;6795;51.232;3.764;2023-03-21T07:16:20;10.50;99.90
13446;DHT22;6795;51.232;3.764;2023-03-21T07:18:50;10.50;99.90
13446;DHT22;6795;51.232;3.764;2023-03-21T07:21:19;10.60;99.90
13446;DHT22;6795;51.232;3.764;2023-03-21T07:23:47;10.60;99.90
13446;DHT22;6795;51.232;3.764;2023-03-21T07:26:16;10.70;99.90
13446;DHT22;6795;51.232;3.764;2023-03-21T07:28:45;10.70;99.90
13446;DHT22;6795;51.232;3.764;2023-03-21T07:31:15;10.80;99.90
13446;DHT22;6795;51.232;3.764;2023-03-21T07:33:45;10.80;99.90
13446;DHT22;6795;51.232;3.764;2023-03-21T07:36:15;10.80;99.90
13446;DHT22;6795;51.232;3.764;2023-03-21T07:38:44;10.90;99.90
13446;DHT22;6795;51.232;3.764;2023-03-21T07:41:12;11.00;99.90
13446;DHT22;6795;51.232;3.764;2023-03-21T07:43:42;11.10;99.90
13446;DHT22;6795;51.232;3.764;2023-03-21T07:46:10;11.10;99.90
13446;DHT22;6795;51.232;3.764;2023-03-21T07:48:39;11.20;99.90
13446;DHT22;6795;51.232;3.764;2023-03-21T07:51:07;11.30;99.90
13446;DHT22;6795;51.232;3.764;2023-03-21T07:53:37;11.30;99.90
13446;DHT22;6795;51.232;3.764;2023-03-21T07:56:08;11.40;99.90
13446;DHT22;6795;51.232;3.764;2023-03-21T07:58:36;11.50;99.90
13446;DHT22;6795;51.232;3.764;2023-03-21T08:01:06;11.60;99.90
13446;DHT22;6795;51.232;3.764;2023-03-21T08:06:04;11.70;99.90
13446;DHT22;6795;51.232;3.764;2023-03-21T08:08:32;11.80;99.90
13446;DHT22;6795;51.232;3.764;2023-03-21T08:11:03;11.90;99.90
13446;DHT22;6795;51.232;3.764;2023-03-21T08:13:32;11.90;99.90
13446;DHT22;6795;51.232;3.764;2023-03-21T08:16:01;12.00;99.90
13446;DHT22;6795;51.232;3.764;2023-03-21T08:18:29;12.00;99.90
13446;DHT22;6795;51.232;3.764;2023-03-21T08:20:58;12.10;99.90
13446;DHT22;6795;51.232;3.764;2023-03-21T08:23:27;12.20;99.90
13446;DHT22;6795;51.232;3.764;2023-03-21T08:25:56;12.30;99.90
13446;DHT22;6795;51.232;3.764;2023-03-21T08:28:26;12.30;99.90
13446;DHT22;6795;51.232;3.764;2023-03-21T08:30:54;12.30;99.90
13446;DHT22;6795;51.232;3.764;2023-03-21T08:33:23;12.50;99.90
13446;DHT22;6795;51.232;3.764;2023-03-21T08:35:51;12.60;99.90
13446;DHT22;6795;51.232;3.764;2023-03-21T08:38:20;12.50;99.90
13446;DHT22;6795;51.232;3.764;2023-03-21T08:40:49;12.70;99.90
13446;DHT22;6795;51.232;3.764;2023-03-21T08:43:17;12.70;99.90
13446;DHT22;6795;51.232;3.764;2023-03-21T08:45:47;12.80;99.90
13446;DHT22;6795;51.232;3.764;2023-03-21T08:48:16;12.80;99.90
13446;DHT22;6795;51.232;3.764;2023-03-21T08:53:13;12.80;99.90
13446;DHT22;6795;51.232;3.764;2023-03-21T08:55:42;12.80;99.90
13446;DHT22;6795;51.232;3.764;2023-03-21T08:58:11;12.70;99.90
13446;DHT22;6795;51.232;3.764;2023-03-21T09:00:39;12.70;99.90
13446;DHT22;6795;51.232;3.764;2023-03-21T09:03:09;12.70;99.90
13446;DHT22;6795;51.232;3.764;2023-03-21T09:05:38;12.70;99.90
13446;DHT22;6795;51.232;3.764;2023-03-21T09:08:06;12.60;99.90
13446;DHT22;6795;51.232;3.764;2023-03-21T09:10:35;12.60;99.90
13446;DHT22;6795;51.232;3.764;2023-03-21T09:13:04;12.60;99.90
13446;DHT22;6795;51.232;3.764;2023-03-21T09:15:32;12.60;99.90
13446;DHT22;6795;51.232;3.764;2023-03-21T09:18:01;12.60;99.90
13446;DHT22;6795;51.232;3.764;2023-03-21T09:20:41;12.70;99.90
13446;DHT22;6795;51.232;3.764;2023-03-21T09:23:11;12.70;99.90
13446;DHT22;6795;51.232;3.764;2023-03-21T09:25:40;12.70;99.90
13446;DHT22;6795;51.232;3.764;2023-03-21T09:28:09;12.80;99.90
13446;DHT22;6795;51.232;3.764;2023-03-21T09:30:39;12.70;99.90
13446;DHT22;6795;51.232;3.764;2023-03-21T09:33:08;12.70;99.90
13446;DHT22;6795;51.232;3.764;2023-03-21T09:35:46;12.70;99.90
13446;DHT22;6795;51.232;3.764;2023-03-21T09:38:18;12.70;99.90
13446;DHT22;6795;51.232;3.764;2023-03-21T09:40:56;12.80;99.90
13446;DHT22;6795;51.232;3.764;2023-03-21T09:43:39;12.90;99.90
13446;DHT22;6795;51.232;3.764;2023-03-21T09:46:20;13.10;99.90
13446;DHT22;6795;51.232;3.764;2023-03-21T09:48:55;13.10;99.90
13446;DHT22;6795;51.232;3.764;2023-03-21T09:51:30;13.20;99.90
13446;DHT22;6795;51.232;3.764;2023-03-21T09:54:04;13.30;99.90
13446;DHT22;6795;51.232;3.764;2023-03-21T09:56:37;13.50;99.90
13446;DHT22;6795;51.232;3.764;2023-03-21T10:04:14;13.70;99.90
13446;DHT22;6795;51.232;3.764;2023-03-21T10:06:52;13.80;99.90
13446;DHT22;6795;51.232;3.764;2023-03-21T10:09:24;13.90;99.90
13446;DHT22;6795;51.232;3.764;2023-03-21T10:11:57;13.90;99.90
13446;DHT22;6795;51.232;3.764;2023-03-21T10:14:29;13.90;99.90
13446;DHT22;6795;51.232;3.764;2023-03-21T10:17:01;13.80;99.90
13446;DHT22;6795;51.232;3.764;2023-03-21T10:19:31;13.80;99.90
13446;DHT22;6795;51.232;3.764;2023-03-21T10:22:01;14.00;99.90
13446;DHT22;6795;51.232;3.764;2023-03-21T10:24:32;13.90;99.90
13446;DHT22;6795;51.232;3.764;2023-03-21T10:27:02;13.70;99.90
13446;DHT22;6795;51.232;3.764;2023-03-21T10:29:36;13.50;99.90
13446;DHT22;6795;51.232;3.764;2023-03-21T10:32:09;13.50;99.90
13446;DHT22;6795;51.232;3.764;2023-03-21T10:34:41;13.50;99.90
13446;DHT22;6795;51.232;3.764;2023-03-21T10:37:12;13.40;99.90
13446;DHT22;6795;51.232;3.764;2023-03-21T10:39:44;13.30;99.90
13446;DHT22;6795;51.232;3.764;2023-03-21T10:42:18;13.20;99.90
13446;DHT22;6795;51.232;3.764;2023-03-21T10:44:48;13.30;99.90
13446;DHT22;6795;51.232;3.764;2023-03-21T10:47:20;13.70;99.90
13446;DHT22;6795;51.232;3.764;2023-03-21T10:49:49;14.30;99.90
13446;DHT22;6795;51.232;3.764;2023-03-21T10:52:40;14.60;99.90
13446;DHT22;6795;51.232;3.764;2023-03-21T10:55:19;15.20;99.90
13446;DHT22;6795;51.232;3.764;2023-03-21T10:57:53;15.40;99.90
13446;DHT22;6795;51.232;3.764;2023-03-21T11:00:26;15.50;99.90
13446;DHT22;6795;51.232;3.764;2023-03-21T11:02:56;15.40;99.90
13446;DHT22;6795;51.232;3.764;2023-03-21T11:05:32;15.20;99.90
13446;DHT22;6795;51.232;3.764;2023-03-21T11:08:05;15.00;99.90
13446;DHT22;6795;51.232;3.764;2023-03-21T11:10:49;15.00;99.90
13446;DHT22;6795;51.232;3.764;2023-03-21T11:13:23;15.00;99.90
13446;DHT22;6795;51.232;3.764;2023-03-21T11:15:54;14.70;99.90
13446;DHT22;6795;51.232;3.764;2023-03-21T11:18:24;14.70;99.90
13446;DHT22;6795;51.232;3.764;2023-03-21T11:20:54;14.90;99.90
13446;DHT22;6795;51.232;3.764;2023-03-21T11:23:28;15.10;99.90
13446;DHT22;6795;51.232;3.764;2023-03-21T11:25:58;15.20;99.90
13446;DHT22;6795;51.232;3.764;2023-03-21T11:28:34;15.20;99.90
13446;DHT22;6795;51.232;3.764;2023-03-21T11:31:05;15.20;99.90
13446;DHT22;6795;51.232;3.764;2023-03-21T11:33:38;15.10;99.90
13446;DHT22;6795;51.232;3.764;2023-03-21T11:36:25;15.10;99.90
13446;DHT22;6795;51.232;3.764;2023-03-21T11:38:57;14.80;99.90
13446;DHT22;6795;51.232;3.764;2023-03-21T11:41:29;14.80;99.90
13446;DHT22;6795;51.232;3.764;2023-03-21T11:43:59;14.60;99.90
13446;DHT22;6795;51.232;3.764;2023-03-21T11:46:28;14.50;99.90
13446;DHT22;6795;51.232;3.764;2023-03-21T11:48:58;14.60;99.90
13446;DHT22;6795;51.232;3.764;2023-03-21T11:51:34;15.00;99.90
13446;DHT22;6795;51.232;3.764;2023-03-21T11:54:10;15.40;99.90
13446;DHT22;6795;51.232;3.764;2023-03-21T11:56:44;15.60;99.90
13446;DHT22;6795;51.232;3.764;2023-03-21T11:59:22;15.70;99.90
13446;DHT22;6795;51.232;3.764;2023-03-21T12:02:04;15.50;99.90
13446;DHT22;6795;51.232;3.764;2023-03-21T12:04:40;15.40;99.90
13446;DHT22;6795;51.232;3.764;2023-03-21T12:07:21;15.30;99.90
13446;DHT22;6795;51.232;3.764;2023-03-21T12:09:56;15.40;99.90
13446;DHT22;6795;51.232;3.764;2023-03-21T12:12:36;15.40;99.90
13446;DHT22;6795;51.232;3.764;2023-03-21T12:15:14;15.40;99.90
13446;DHT22;6795;51.232;3.764;2023-03-21T12:17:52;15.30;99.90
13446;DHT22;6795;51.232;3.764;2023-03-21T12:20:39;15.20;99.90
13446;DHT22;6795;51.232;3.764;2023-03-21T12:23:31;15.00;99.90
13446;DHT22;6795;51.232;3.764;2023-03-21T12:26:11;14.80;99.90
13446;DHT22;6795;51.232;3.764;2023-03-21T12:28:53;14.60;99.90
13446;DHT22;6795;51.232;3.764;2023-03-21T12:31:28;14.50;99.90
13446;DHT22;6795;51.232;3.764;2023-03-21T12:34:10;14.50;99.90
13446;DHT22;6795;51.232;3.764;2023-03-21T12:36:52;14.40;99.90
13446;DHT22;6795;51.232;3.764;2023-03-21T12:39:28;14.20;99.90
13446;DHT22;6795;51.232;3.764;2023-03-21T12:42:13;14.40;99.90
13446;DHT22;6795;51.232;3.764;2023-03-21T12:44:48;14.80;99.90
13446;DHT22;6795;51.232;3.764;2023-03-21T12:47:21;14.80;99.90
13446;DHT22;6795;51.232;3.764;2023-03-21T12:49:54;14.80;99.90
13446;DHT22;6795;51.232;3.764;2023-03-21T12:52:27;14.70;99.90
13446;DHT22;6795;51.232;3.764;2023-03-21T12:55:01;14.60;99.90
13446;DHT22;6795;51.232;3.764;2023-03-21T12:57:34;14.80;99.90
13446;DHT22;6795;51.232;3.764;2023-03-21T13:00:14;14.80;99.90
13446;DHT22;6795;51.232;3.764;2023-03-21T13:02:49;14.90;99.90
13446;DHT22;6795;51.232;3.764;2023-03-21T13:05:25;15.00;99.90
13446;DHT22;6795;51.232;3.764;2023-03-21T13:08:00;14.70;99.90
13446;DHT22;6795;51.232;3.764;2023-03-21T13:10:29;14.50;99.90
13446;DHT22;6795;51.232;3.764;2023-03-21T13:13:04;14.40;99.90
13446;DHT22;6795;51.232;3.764;2023-03-21T13:15:47;14.10;99.90
13446;DHT22;6795;51.232;3.764;2023-03-21T13:18:26;14.00;99.90
13446;DHT22;6795;51.232;3.764;2023-03-21T13:21:02;13.90;99.90
13446;DHT22;6795;51.232;3.764;2023-03-21T13:23:34;14.00;99.90
13446;DHT22;6795;51.232;3.764;2023-03-21T13:26:07;13.90;99.90
13446;DHT22;6795;51.232;3.764;2023-03-21T13:28:40;13.90;99.90
13446;DHT22;6795;51.232;3.764;2023-03-21T13:31:17;13.80;99.90
13446;DHT22;6795;51.232;3.764;2023-03-21T13:33:48;13.70;99.90
13446;DHT22;6795;51.232;3.764;2023-03-21T13:36:22;13.70;99.90
13446;DHT22;6795;51.232;3.764;2023-03-21T13:38:54;13.60;99.90
13446;DHT22;6795;51.232;3.764;2023-03-21T13:41:30;13.70;99.90
13446;DHT22;6795;51.232;3.764;2023-03-21T13:44:21;13.60;99.90
13446;DHT22;6795;51.232;3.764;2023-03-21T13:46:53;13.70;99.90
13446;DHT22;6795;51.232;3.764;2023-03-21T13:49:28;13.80;99.90
13446;DHT22;6795;51.232;3.764;2023-03-21T13:51:59;13.80;99.90
13446;DHT22;6795;51.232;3.764;2023-03-21T13:54:44;13.70;99.90
13446;DHT22;6795;51.232;3.764;2023-03-21T14:00:20;13.40;99.90
13446;DHT22;6795;51.232;3.764;2023-03-21T14:02:54;13.20;99.90
13446;DHT22;6795;51.232;3.764;2023-03-21T14:05:25;13.10;99.90
13446;DHT22;6795;51.232;3.764;2023-03-21T14:07:57;13.10;99.90
13446;DHT22;6795;51.232;3.764;2023-03-21T14:10:43;13.10;99.90
13446;DHT22;6795;51.232;3.764;2023-03-21T14:13:15;13.10;99.90
13446;DHT22;6795;51.232;3.764;2023-03-21T14:15:48;13.20;99.90
13446;DHT22;6795;51.232;3.764;2023-03-21T14:18:24;13.40;99.90
13446;DHT22;6795;51.232;3.764;2023-03-21T14:21:01;13.40;99.90
13446;DHT22;6795;51.232;3.764;2023-03-21T14:23:37;13.50;99.90
13446;DHT22;6795;51.232;3.764;2023-03-21T14:26:07;13.60;99.90
13446;DHT22;6795;51.232;3.764;2023-03-21T14:28:38;13.60;99.90
13446;DHT22;6795;51.232;3.764;2023-03-21T14:31:14;13.60;99.90
13446;DHT22;6795;51.232;3.764;2023-03-21T14:33:46;13.60;99.90
13446;DHT22;6795;51.232;3.764;2023-03-21T14:36:20;13.70;99.90
13446;DHT22;6795;51.232;3.764;2023-03-21T14:39:04;13.80;99.90
13446;DHT22;6795;51.232;3.764;2023-03-21T14:41:35;13.80;99.90
13446;DHT22;6795;51.232;3.764;2023-03-21T14:44:17;13.70;99.90
13446;DHT22;6795;51.232;3.764;2023-03-21T14:46:50;13.80;99.90
13446;DHT22;6795;51.232;3.764;2023-03-21T14:49:22;13.80;99.90
13446;DHT22;6795;51.232;3.764;2023-03-21T14:51:54;13.80;99.90
13446;DHT22;6795;51.232;3.764;2023-03-21T14:54:24;14.10;99.90
13446;DHT22;6795;51.232;3.764;2023-03-21T14:56:59;14.30;99.90
13446;DHT22;6795;51.232;3.764;2023-03-21T14:59:32;14.40;99.90
13446;DHT22;6795;51.232;3.764;2023-03-21T15:02:10;14.40;99.90
13446;DHT22;6795;51.232;3.764;2023-03-21T15:04:43;14.40;99.90
13446;DHT22;6795;51.232;3.764;2023-03-21T15:07:24;14.40;99.90
13446;DHT22;6795;51.232;3.764;2023-03-21T15:09:54;14.30;99.90
13446;DHT22;6795;51.232;3.764;2023-03-21T15:12:23;14.10;99.90
13446;DHT22;6795;51.232;3.764;2023-03-21T15:14:52;14.00;99.90
13446;DHT22;6795;51.232;3.764;2023-03-21T15:17:23;13.90;99.90
13446;DHT22;6795;51.232;3.764;2023-03-21T15:19:52;13.90;99.90
13446;DHT22;6795;51.232;3.764;2023-03-21T15:22:27;13.80;99.90
13446;DHT22;6795;51.232;3.764;2023-03-21T15:24:59;13.80;99.90
13446;DHT22;6795;51.232;3.764;2023-03-21T15:27:31;13.80;99.90
13446;DHT22;6795;51.232;3.764;2023-03-21T15:30:00;13.60;99.90
13446;DHT22;6795;51.232;3.764;2023-03-21T15:32:30;13.50;99.90
13446;DHT22;6795;51.232;3.764;2023-03-21T15:35:05;13.70;99.90
13446;DHT22;6795;51.232;3.764;2023-03-21T15:37:36;14.40;99.90
13446;DHT22;6795;51.232;3.764;2023-03-21T15:40:09;14.70;99.90
13446;DHT22;6795;51.232;3.764;2023-03-21T15:42:43;14.50;99.90
13446;DHT22;6795;51.232;3.764;2023-03-21T15:45:18;14.50;99.90
13446;DHT22;6795;51.232;3.764;2023-03-21T15:48:00;14.40;99.90
13446;DHT22;6795;51.232;3.764;2023-03-21T15:50:34;14.40;99.90
13446;DHT22;6795;51.232;3.764;2023-03-21T15:53:05;14.50;99.90
13446;DHT22;6795;51.232;3.764;2023-03-21T15:55:41;14.40;99.90
13446;DHT22;6795;51.232;3.764;2023-03-21T15:58:17;14.30;99.90
13446;DHT22;6795;51.232;3.764;2023-03-21T16:00:48;14.20;99.90
13446;DHT22;6795;51.232;3.764;2023-03-21T16:03:24;14.10;99.90
13446;DHT22;6795;51.232;3.764;2023-03-21T16:06:14;14.00;99.90
13446;DHT22;6795;51.232;3.764;2023-03-21T16:08:45;13.90;99.90
13446;DHT22;6795;51.232;3.764;2023-03-21T16:11:17;13.80;99.90
13446;DHT22;6795;51.232;3.764;2023-03-21T16:13:45;13.90;99.90
13446;DHT22;6795;51.232;3.764;2023-03-21T16:16:16;13.90;99.90
13446;DHT22;6795;51.232;3.764;2023-03-21T16:18:46;13.90;99.90
13446;DHT22;6795;51.232;3.764;2023-03-21T16:21:16;14.00;99.90
13446;DHT22;6795;51.232;3.764;2023-03-21T16:23:44;14.00;99.90
13446;DHT22;6795;51.232;3.764;2023-03-21T16:26:14;14.10;99.90
13446;DHT22;6795;51.232;3.764;2023-03-21T16:28:44;14.00;99.90
13446;DHT22;6795;51.232;3.764;2023-03-21T16:31:14;14.10;99.90
13446;DHT22;6795;51.232;3.764;2023-03-21T16:33:43;14.00;99.90
13446;DHT22;6795;51.232;3.764;2023-03-21T16:36:15;14.00;99.90
13446;DHT22;6795;51.232;3.764;2023-03-21T16:38:45;14.00;99.90
13446;DHT22;6795;51.232;3.764;2023-03-21T16:41:16;13.90;99.90
13446;DHT22;6795;51.232;3.764;2023-03-21T16:43:44;13.90;99.90
13446;DHT22;6795;51.232;3.764;2023-03-21T16:46:13;13.90;99.90
13446;DHT22;6795;51.232;3.764;2023-03-21T16:48:44;13.80;99.90